Time;durP1;ratioP1;P1;durP2;ratioP2;P2;SDS_P1;SDS_P2;PMS_P1;PMS_P2;Temp;Humidity;BMP_temperature;BMP_pressure;BME280_temperature;BME280_humidity;BME280_pressure;Samples;Min_cycle;Max_cycle;Signal;HPM_P1;HPM_P2
2022/11/03 00:02:06;;;;;;;5.35;3.50;;;;;;;5.30;100.00;96251.78;5007764;28;24448;-73
2022/11/03 00:04:33;;;;;;;7.88;3.95;;;;;;;5.33;100.00;96255.97;5001086;28;24970;-73
2022/11/03 00:07:00;;;;;;;9.20;3.72;;;;;;;5.37;100.00;96249.00;5001064;28;24451;-73
2022/11/03 00:09:26;;;;;;;13.63;4.53;;;;;;;5.29;100.00;96247.53;4999160;28;24448;-72
2022/11/03 00:11:53;;;;;;;7.20;4.60;;;;;;;5.19;100.00;96247.88;5005252;28;24508;-71
2022/11/03 00:14:20;;;;;;;8.87;4.53;;;;;;;5.14;100.00;96250.63;4995732;28;24511;-72
2022/11/03 00:16:47;;;;;;;7.20;4.28;;;;;;;5.13;100.00;96238.69;5010980;28;24444;-71
2022/11/03 00:19:15;;;;;;;6.75;4.32;;;;;;;5.06;100.00;96240.63;5002991;28;24452;-71
2022/11/03 00:21:43;;;;;;;8.43;4.68;;;;;;;5.04;100.00;96234.72;5008391;28;24784;-71
2022/11/03 00:24:09;;;;;;;9.60;5.00;;;;;;;4.98;100.00;96237.47;5011284;28;24439;-71
2022/11/03 00:26:37;;;;;;;8.10;4.82;;;;;;;4.91;100.00;96227.47;5011148;28;24444;-72
2022/11/03 00:29:08;;;;;;;8.35;4.90;;;;;;;4.97;100.00;96233.22;5010851;28;24440;-72
2022/11/03 00:31:36;;;;;;;7.90;4.03;;;;;;;4.80;100.00;96227.81;5002338;28;24440;-70
2022/11/03 00:34:04;;;;;;;7.65;3.33;;;;;;;4.55;100.00;96241.41;5010974;28;24994;-72
2022/11/03 00:36:33;;;;;;;5.63;3.40;;;;;;;4.63;100.00;96232.63;4997286;28;24981;-71
2022/11/03 00:39:01;;;;;;;8.25;3.67;;;;;;;4.78;100.00;96234.69;5010434;28;24432;-72
2022/11/03 00:41:28;;;;;;;4.75;3.50;;;;;;;4.85;100.00;96236.19;5010605;28;24445;-71
2022/11/03 00:43:56;;;;;;;4.30;3.22;;;;;;;4.87;100.00;96236.16;5010738;28;24443;-72
2022/11/03 00:46:23;;;;;;;6.13;3.53;;;;;;;4.95;100.00;96232.44;5007120;28;24436;-72
2022/11/03 00:48:50;;;;;;;5.68;3.03;;;;;;;4.92;100.00;96219.69;5003738;28;24444;-71
2022/11/03 00:51:18;;;;;;;5.80;3.33;;;;;;;4.92;100.00;96218.84;5003574;28;24432;-71
2022/11/03 00:53:47;;;;;;;5.18;3.25;;;;;;;4.66;100.00;96220.53;5010338;28;24815;-71
2022/11/03 00:56:16;;;;;;;14.20;3.40;;;;;;;4.57;100.00;96223.44;5002974;28;24450;-71
2022/11/03 00:58:44;;;;;;;6.78;3.38;;;;;;;4.72;100.00;96217.78;5009261;28;24796;-71
2022/11/03 01:01:12;;;;;;;7.77;3.30;;;;;;;4.63;100.00;96207.81;5004300;28;24463;-71
2022/11/03 01:03:40;;;;;;;8.03;3.40;;;;;;;4.50;100.00;96216.81;5001358;28;24444;-72
2022/11/03 01:08:53;;;;;;;7.33;3.53;;;;;;;4.25;100.00;96209.03;5004837;28;24478;-72
2022/11/03 01:14:09;;;;;;;6.72;3.45;;;;;;;4.19;100.00;96196.41;5000263;28;24431;-72
2022/11/03 01:16:35;;;;;;;5.30;3.50;;;;;;;4.10;100.00;96193.22;5002759;28;24807;-72
2022/11/03 01:19:02;;;;;;;6.88;3.70;;;;;;;3.98;100.00;96188.50;5001976;28;24447;-71
2022/11/03 01:21:28;;;;;;;9.68;3.90;;;;;;;3.91;100.00;96181.88;5003915;28;24998;-72
2022/11/03 01:23:55;;;;;;;5.38;3.50;;;;;;;3.94;100.00;96180.94;5003123;28;24447;-72
2022/11/03 01:26:23;;;;;;;5.43;3.25;;;;;;;3.94;100.00;96180.94;4999237;28;24435;-72
2022/11/03 01:28:49;;;;;;;7.68;3.75;;;;;;;3.94;100.00;96174.09;5003369;28;24796;-72
2022/11/03 01:31:18;;;;;;;5.95;3.45;;;;;;;3.93;100.00;96180.13;4999568;28;24437;-71
2022/11/03 01:33:46;;;;;;;5.20;3.17;;;;;;;3.87;100.00;96183.69;5000258;28;24993;-72
2022/11/03 01:36:13;;;;;;;5.50;3.60;;;;;;;3.89;100.00;96181.06;4999575;28;24464;-71
2022/11/03 01:38:40;;;;;;;4.13;3.07;;;;;;;3.98;100.00;96178.25;5003832;28;24462;-74
2022/11/03 01:41:08;;;;;;;5.55;3.25;;;;;;;4.00;100.00;96178.19;4996243;28;24548;-74
2022/11/03 01:43:38;;;;;;;8.43;3.42;;;;;;;4.02;100.00;96173.84;5003096;28;24440;-74
2022/11/03 01:46:13;;;;;;;7.82;3.67;;;;;;;3.97;100.00;96168.00;4999695;28;24443;-74
2022/11/03 01:48:45;;;;;;;5.80;3.22;;;;;;;3.97;100.00;96162.88;5008707;28;24447;-74
2022/11/03 01:51:15;;;;;;;5.65;3.42;;;;;;;3.98;100.00;96162.03;4998192;28;24429;-74
2022/11/03 01:53:45;;;;;;;6.00;3.63;;;;;;;3.97;100.00;96162.88;5002476;28;24436;-74
2022/11/03 01:56:13;;;;;;;5.50;3.33;;;;;;;4.03;100.00;96160.16;5003975;28;24447;-74
2022/11/03 01:58:43;;;;;;;8.40;4.15;;;;;;;4.12;100.00;96154.75;5007182;28;24780;-74
2022/11/03 02:01:11;;;;;;;8.07;3.65;;;;;;;4.15;100.00;96159.75;4997272;28;24519;-74
2022/11/03 02:03:40;;;;;;;4.82;2.97;;;;;;;4.10;100.00;96165.03;5002902;28;24432;-74
2022/11/03 02:06:08;;;;;;;5.75;3.15;;;;;;;4.20;100.00;96163.03;5008032;28;24440;-73
2022/11/03 02:08:40;;;;;;;5.05;3.00;;;;;;;4.29;100.00;96156.78;5004844;28;24441;-74
2022/11/03 02:13:48;;;;;;;4.43;2.60;;;;;;;4.38;100.00;96142.84;5004064;28;24421;-74
2022/11/03 02:16:15;;;;;;;4.72;3.30;;;;;;;4.27;100.00;96146.56;5004231;28;25001;-74
2022/11/03 02:18:44;;;;;;;4.82;2.78;;;;;;;4.19;100.00;96132.31;5002484;28;24429;-74
2022/11/03 02:21:22;;;;;;;3.85;2.70;;;;;;;4.10;100.00;96139.41;5006011;28;25047;-74
2022/11/03 02:23:57;;;;;;;4.72;3.05;;;;;;;4.03;100.00;96137.09;5009826;28;24431;-75
2022/11/03 02:26:25;;;;;;;5.07;3.25;;;;;;;3.87;100.00;96129.88;5006224;28;24447;-74
2022/11/03 02:28:51;;;;;;;6.30;3.40;;;;;;;3.69;100.00;96116.78;5003582;28;24982;-74
2022/11/03 02:31:28;;;;;;;5.38;2.92;;;;;;;3.57;100.00;96110.31;5001657;28;24443;-74
2022/11/03 02:33:59;;;;;;;4.93;3.03;;;;;;;3.61;100.00;96109.34;5013029;28;24798;-74
2022/11/03 02:36:30;;;;;;;7.25;3.80;;;;;;;3.58;100.00;96107.69;5002319;28;24806;-73
2022/11/03 02:39:02;;;;;;;6.43;3.92;;;;;;;3.53;100.00;96093.38;5012971;28;24428;-74
2022/11/03 02:41:34;;;;;;;4.95;3.40;;;;;;;3.60;100.00;96092.31;5010320;28;24448;-74
2022/11/03 02:44:01;;;;;;;5.63;3.58;;;;;;;3.68;100.00;96087.78;5010856;28;24440;-72
2022/11/03 02:46:31;;;;;;;6.13;3.60;;;;;;;3.63;100.00;96085.38;5001771;28;24434;-74
2022/11/03 02:48:58;;;;;;;9.68;4.03;;;;;;;3.68;100.00;96076.69;5012053;28;24428;-74
2022/11/03 02:51:24;;;;;;;9.70;3.80;;;;;;;3.57;100.00;96080.41;5002048;28;24439;-73
2022/11/03 02:54:02;;;;;;;5.53;3.33;;;;;;;3.35;100.00;96077.66;5004950;28;24436;-74
2022/11/03 02:56:34;;;;;;;6.93;3.83;;;;;;;3.53;100.00;96073.72;5004244;28;25024;-73
2022/11/03 02:59:02;;;;;;;6.82;3.65;;;;;;;3.63;100.00;96064.88;5008367;28;24440;-74
2022/11/03 03:01:35;;;;;;;6.82;3.50;;;;;;;3.71;100.00;96062.06;5009234;28;26157;-74
2022/11/03 03:04:09;;;;;;;4.75;3.65;;;;;;;3.86;100.00;96065.88;5006267;28;24440;-74
2022/11/03 03:06:39;;;;;;;11.68;3.95;;;;;;;3.63;100.00;96064.88;5002214;28;24451;-74
2022/11/03 03:09:09;;;;;;;11.48;6.95;;;;;;;3.66;100.00;96069.03;5011372;28;24437;-74
2022/11/03 03:11:42;;;;;;;7.32;4.85;;;;;;;3.80;100.00;96061.78;5010133;28;24436;-74
2022/11/03 03:14:13;;;;;;;2.97;2.30;;;;;;;3.83;100.00;96056.56;5008433;28;24455;-73
2022/11/03 03:16:49;;;;;;;4.18;2.30;;;;;;;3.85;100.00;96049.63;5001787;28;24436;-74
2022/11/03 03:19:24;;;;;;;4.38;2.33;;;;;;;3.95;100.00;96044.25;5003180;28;24451;-74
2022/11/03 03:21:54;;;;;;;5.30;2.00;;;;;;;3.99;100.00;96041.50;5001611;28;24456;-74
2022/11/03 03:24:30;;;;;;;12.68;2.72;;;;;;;3.82;100.00;96036.94;4998861;28;24444;-74
2022/11/03 03:27:02;;;;;;;7.30;2.63;;;;;;;3.81;100.00;96036.97;5001665;28;24441;-74
2022/11/03 03:29:33;;;;;;;8.37;2.97;;;;;;;3.72;100.00;96033.00;5004862;28;24433;-74
2022/11/03 03:32:03;;;;;;;4.85;2.63;;;;;;;3.62;100.00;96031.59;5010874;28;24439;-74
2022/11/03 03:34:33;;;;;;;6.57;2.78;;;;;;;3.27;100.00;96025.84;5002702;28;24432;-73
2022/11/03 03:37:00;;;;;;;4.47;2.80;;;;;;;3.31;100.00;96016.38;5004421;28;24435;-74
2022/11/03 03:39:32;;;;;;;6.40;3.25;;;;;;;3.21;100.00;96014.97;5005567;28;24452;-74
2022/11/03 03:42:02;;;;;;;3.40;2.80;;;;;;;3.23;100.00;96003.81;5006197;28;24455;-74
2022/11/03 03:44:30;;;;;;;3.72;2.90;;;;;;;3.23;100.00;96008.91;4999133;28;24438;-74
2022/11/03 03:47:00;;;;;;;5.25;3.08;;;;;;;3.24;100.00;95995.22;5004706;28;24432;-74
2022/11/03 03:49:27;;;;;;;3.95;3.10;;;;;;;2.97;100.00;95985.84;5006556;28;24491;-74
2022/11/03 03:51:54;;;;;;;3.65;2.72;;;;;;;3.13;100.00;95987.88;5005502;28;24429;-74
2022/11/03 03:54:20;;;;;;;4.50;2.88;;;;;;;3.12;100.00;95985.38;5002040;28;24444;-74
2022/11/03 03:56:56;;;;;;;4.88;2.50;;;;;;;3.07;100.00;95979.53;4999918;28;24444;-74
2022/11/03 03:59:24;;;;;;;6.43;2.93;;;;;;;3.11;100.00;95986.22;5009595;28;24448;-73
2022/11/03 04:01:50;;;;;;;2.67;2.33;;;;;;;3.20;100.00;95980.00;5003547;28;24456;-74
2022/11/03 04:04:17;;;;;;;3.85;2.35;;;;;;;3.25;100.00;95980.69;5008100;28;24447;-74
2022/11/03 04:06:43;;;;;;;3.35;2.85;;;;;;;3.27;100.00;95979.78;5010188;28;24456;-73
2022/11/03 04:09:10;;;;;;;4.65;2.90;;;;;;;3.33;100.00;95978.75;5010445;28;24494;-73
2022/11/03 04:22:33;;;;;;;3.80;2.60;;;;;;;3.41;100.00;95961.41;5008589;28;25016;-74
2022/11/03 04:25:00;;;;;;;3.58;2.78;;;;;;;3.13;100.00;95961.44;5008304;28;24432;-73
2022/11/03 04:27:30;;;;;;;3.00;2.30;;;;;;;3.15;100.00;95954.53;5008306;28;24451;-73
2022/11/03 04:30:00;;;;;;;3.08;2.10;;;;;;;3.21;100.00;95950.97;4998895;28;24432;-72
2022/11/03 04:32:28;;;;;;;3.45;2.40;;;;;;;3.29;100.00;95952.41;5002513;28;24992;-73
2022/11/03 04:34:55;;;;;;;4.75;2.17;;;;;;;3.29;100.00;95947.28;5008348;28;24447;-73
2022/11/03 04:37:21;;;;;;;3.75;2.42;;;;;;;3.27;100.00;95950.78;5002890;28;24433;-73
2022/11/03 04:39:48;;;;;;;3.45;2.38;;;;;;;3.16;100.00;95951.13;5007942;28;25012;-73
2022/11/03 04:42:18;;;;;;;3.22;2.30;;;;;;;3.04;100.00;95952.34;5002597;28;24455;-74
2022/11/03 04:44:45;;;;;;;3.00;2.20;;;;;;;2.96;100.00;95944.03;5005081;28;24478;-73
2022/11/03 04:47:13;;;;;;;2.67;1.90;;;;;;;2.99;100.00;95940.56;5006336;28;24803;-73
2022/11/03 04:49:42;;;;;;;3.15;2.20;;;;;;;2.98;100.00;95937.16;5007599;28;24443;-73
2022/11/03 04:52:14;;;;;;;2.80;2.20;;;;;;;2.98;100.00;95936.31;5009170;28;25111;-73
2022/11/03 04:54:41;;;;;;;4.82;3.22;;;;;;;2.89;100.00;95934.88;4998685;28;24488;-73
2022/11/03 04:57:11;;;;;;;6.20;3.40;;;;;;;2.88;100.00;95931.47;5001637;28;24501;-73
2022/11/03 04:59:38;;;;;;;3.85;2.83;;;;;;;2.94;100.00;95927.91;4995593;28;24449;-73
2022/11/03 05:02:11;;;;;;;4.82;2.70;;;;;;;3.10;100.00;95921.41;4995265;28;25209;-73
2022/11/03 05:04:38;;;;;;;3.17;2.60;;;;;;;3.15;100.00;95913.59;5006032;28;24439;-74
2022/11/03 05:07:19;;;;;;;3.75;2.55;;;;;;;3.15;100.00;95909.34;5008015;28;24436;-73
2022/11/03 05:09:46;;;;;;;2.63;2.20;;;;;;;2.92;100.00;95902.34;4999802;28;24448;-74
2022/11/03 05:12:13;;;;;;;2.30;2.10;;;;;;;2.90;100.00;95903.31;4998338;28;24464;-75
2022/11/03 05:14:39;;;;;;;7.07;2.83;;;;;;;2.92;100.00;95898.97;5007559;28;24436;-73
2022/11/03 05:17:15;;;;;;;4.20;2.40;;;;;;;2.94;100.00;95899.75;5006668;28;24443;-74
2022/11/03 05:19:43;;;;;;;5.83;2.80;;;;;;;2.99;100.00;95897.06;4997845;28;24472;-73
2022/11/03 05:22:17;;;;;;;4.22;3.03;;;;;;;3.12;100.00;95888.13;5004940;28;24459;-74
2022/11/03 05:24:44;;;;;;;3.20;2.67;;;;;;;3.17;100.00;95881.13;5001105;28;24441;-74
2022/11/03 05:27:15;;;;;;;5.22;2.45;;;;;;;3.27;100.00;95890.19;4999745;28;25013;-74
2022/11/03 05:29:42;;;;;;;7.05;3.10;;;;;;;3.24;100.00;95885.16;4998483;28;24437;-74
2022/11/03 05:32:12;;;;;;;4.85;3.00;;;;;;;3.27;100.00;95877.41;5005476;28;24432;-74
2022/11/03 05:34:42;;;;;;;3.70;3.00;;;;;;;3.27;100.00;95874.84;4996688;28;24795;-74
2022/11/03 05:37:23;;;;;;;5.45;3.40;;;;;;;3.34;100.00;95871.19;5004555;28;24439;-74
2022/11/03 05:39:51;;;;;;;3.15;2.85;;;;;;;3.35;100.00;95864.34;5001983;28;24444;-73
2022/11/03 05:42:30;;;;;;;6.68;4.35;;;;;;;3.43;100.00;95877.72;5002339;28;24449;-73
2022/11/03 05:44:57;;;;;;;17.55;13.20;;;;;;;3.42;100.00;95870.94;5004547;28;24794;-73
2022/11/03 05:47:27;;;;;;;11.00;7.70;;;;;;;3.45;100.00;95863.16;5002943;28;24436;-73
2022/11/03 05:49:56;;;;;;;6.63;3.58;;;;;;;3.35;100.00;95859.22;4998875;28;24441;-73
2022/11/03 05:52:26;;;;;;;7.32;4.03;;;;;;;3.36;100.00;95859.16;5008108;28;24814;-74
2022/11/03 05:54:56;;;;;;;8.70;5.90;;;;;;;3.38;100.00;95854.00;5003891;28;25005;-74
2022/11/03 05:57:23;;;;;;;6.53;3.70;;;;;;;3.34;100.00;95842.19;5007055;28;24428;-74
2022/11/03 05:59:51;;;;;;;8.77;4.80;;;;;;;3.26;100.00;95832.19;4999975;28;24452;-75
2022/11/03 06:02:36;;;;;;;11.55;5.13;;;;;;;3.28;100.00;95825.31;5001699;28;24448;-72
2022/11/03 06:05:03;;;;;;;7.13;5.22;;;;;;;3.17;100.00;95821.44;5006085;28;24444;-73
2022/11/03 06:07:31;;;;;;;14.43;2.22;;;;;;;3.22;100.00;95825.50;5003547;28;24429;-72
2022/11/03 06:09:58;;;;;;;4.07;2.33;;;;;;;3.20;100.00;95821.34;4998594;28;24444;-73
2022/11/03 06:12:25;;;;;;;3.65;2.20;;;;;;;3.20;100.00;95831.56;5006941;28;24439;-73
2022/11/03 06:14:52;;;;;;;6.53;2.58;;;;;;;3.19;100.00;95817.94;5004548;28;24432;-72
2022/11/03 06:17:23;;;;;;;5.18;3.08;;;;;;;3.14;100.00;95815.50;5007390;28;24444;-72
2022/11/03 06:19:53;;;;;;;8.63;5.97;;;;;;;3.14;100.00;95817.25;5001631;28;24981;-72
2022/11/03 06:22:24;;;;;;;5.70;5.07;;;;;;;3.19;100.00;95823.06;5008075;28;24456;-72
2022/11/03 06:24:55;;;;;;;5.55;3.97;;;;;;;3.24;100.00;95817.78;5005258;28;24476;-73
2022/11/03 06:27:23;;;;;;;4.50;3.42;;;;;;;3.27;100.00;95815.97;5006684;28;24439;-72
2022/11/03 06:29:52;;;;;;;10.75;7.00;;;;;;;3.15;100.00;95819.78;5006345;28;24447;-72
2022/11/03 06:32:18;;;;;;;13.10;8.90;;;;;;;3.12;100.00;95821.59;5007252;28;24435;-71
2022/11/03 06:34:47;;;;;;;8.35;3.53;;;;;;;3.01;100.00;95819.38;5007960;28;25021;-72
2022/11/03 06:37:22;;;;;;;4.40;3.78;;;;;;;3.13;100.00;95816.41;5007442;28;24440;-72
2022/11/03 06:39:50;;;;;;;4.93;3.88;;;;;;;3.20;100.00;95813.66;5000520;28;24499;-71
2022/11/03 06:42:21;;;;;;;5.43;4.03;;;;;;;3.37;100.00;95808.78;4996762;28;24461;-71
2022/11/03 06:44:50;;;;;;;6.73;4.90;;;;;;;3.42;100.00;95813.78;5007659;28;24538;-72
2022/11/03 06:47:22;;;;;;;10.88;4.93;;;;;;;3.40;100.00;95812.09;5004170;28;24444;-72
2022/11/03 06:49:50;;;;;;;7.15;5.68;;;;;;;3.48;100.00;95813.56;4994705;28;24975;-74
2022/11/03 06:52:29;;;;;;;6.97;4.37;;;;;;;3.55;100.00;95804.78;4997623;28;24464;-72
2022/11/03 06:55:02;;;;;;;6.63;5.60;;;;;;;3.56;100.00;95804.72;5003602;28;24447;-71
2022/11/03 06:57:35;;;;;;;4.60;4.13;;;;;;;3.70;100.00;95793.16;5004784;28;24428;-72
2022/11/03 07:00:02;;;;;;;9.10;3.75;;;;;;;3.66;100.00;95784.75;4998739;28;24436;-72
2022/11/03 07:02:53;;;;;;;5.90;3.20;;;;;;;3.59;100.00;95785.84;5004152;28;24452;-72
2022/11/03 07:05:22;;;;;;;5.22;2.42;;;;;;;3.64;100.00;95783.97;4997519;28;24433;-72
2022/11/03 07:07:49;;;;;;;3.75;2.75;;;;;;;3.70;100.00;95781.19;5003109;28;24433;-72
2022/11/03 07:10:16;;;;;;;4.70;3.15;;;;;;;3.76;100.00;95782.69;5000266;28;24440;-71
2022/11/03 07:12:45;;;;;;;3.65;2.85;;;;;;;3.60;100.00;95783.25;5008893;28;24432;-72
2022/11/03 07:15:24;;;;;;;8.00;3.20;;;;;;;3.49;100.00;95782.78;5005411;28;24443;-74
2022/11/03 07:17:51;;;;;;;4.50;2.60;;;;;;;3.56;100.00;95781.69;4999019;28;24445;-71
2022/11/03 07:20:17;;;;;;;4.90;3.13;;;;;;;3.57;100.00;95785.06;5004063;28;24459;-71
2022/11/03 07:22:45;;;;;;;6.22;2.88;;;;;;;3.62;100.00;95783.19;5008698;28;24844;-72
2022/11/03 07:25:17;;;;;;;3.50;2.38;;;;;;;3.73;100.00;95775.94;5010610;28;24775;-72
2022/11/03 07:27:47;;;;;;;3.25;2.20;;;;;;;3.87;100.00;95778.84;4999981;28;24459;-72
2022/11/03 07:30:18;;;;;;;4.65;2.20;;;;;;;3.98;100.00;95772.50;5003533;28;24998;-72
2022/11/03 07:32:46;;;;;;;3.53;2.08;;;;;;;4.16;100.00;95764.13;5003891;28;24487;-72
2022/11/03 07:35:31;;;;;;;3.40;2.00;;;;;;;4.20;100.00;95763.13;5003962;28;24440;-73
2022/11/03 07:38:01;;;;;;;5.82;2.42;;;;;;;4.21;100.00;95753.69;5000375;28;24448;-72
2022/11/03 07:40:31;;;;;;;4.28;2.50;;;;;;;4.29;100.00;95757.63;5005903;28;24862;-72
2022/11/03 07:43:01;;;;;;;4.53;3.00;;;;;;;4.38;100.00;95747.94;5009029;28;24449;-72
2022/11/03 07:45:37;;;;;;;5.38;3.00;;;;;;;4.45;100.00;95744.22;5007758;28;24429;-72
2022/11/03 07:48:14;;;;;;;7.97;2.67;;;;;;;4.60;100.00;95744.47;4999698;28;24437;-71
2022/11/03 07:50:40;;;;;;;4.75;2.65;;;;;;;4.52;100.00;95743.91;5004163;28;24460;-73
2022/11/03 07:53:13;;;;;;;4.90;2.80;;;;;;;4.57;100.00;95738.63;5007367;28;24439;-72
2022/11/03 07:55:39;;;;;;;4.03;2.30;;;;;;;4.70;100.00;95731.25;5003886;28;24443;-72
2022/11/03 07:58:20;;;;;;;3.10;2.08;;;;;;;4.92;100.00;95718.41;5007958;28;24436;-72
2022/11/03 08:00:47;;;;;;;3.47;2.13;;;;;;;5.08;100.00;95715.13;4999892;28;24433;-72
2022/11/03 08:03:26;;;;;;;5.03;2.30;;;;;;;5.29;100.00;95715.13;5009176;28;24483;-72
2022/11/03 08:05:53;;;;;;;4.73;2.73;;;;;;;5.27;100.00;95706.66;5001318;28;24437;-72
2022/11/03 08:08:19;;;;;;;8.03;4.37;;;;;;;5.31;100.00;95705.63;5000928;28;24456;-72
2022/11/03 08:10:46;;;;;;;22.33;8.18;;;;;;;5.34;100.00;95703.75;5002715;28;24437;-72
2022/11/03 08:13:12;;;;;;;16.98;10.23;;;;;;;5.38;100.00;95706.16;5008908;28;24440;-72
2022/11/03 08:15:40;;;;;;;18.52;9.65;;;;;;;5.33;100.00;95701.22;5007742;28;24661;-72
2022/11/03 08:18:07;;;;;;;11.68;6.93;;;;;;;5.43;100.00;95705.09;5003994;28;24831;-72
2022/11/03 08:20:33;;;;;;;8.63;3.85;;;;;;;5.51;100.00;95697.03;5000445;28;24443;-72
2022/11/03 08:23:00;;;;;;;10.98;4.63;;;;;;;5.40;100.00;95694.94;5006486;28;24449;-72
2022/11/03 08:25:26;;;;;;;6.40;3.47;;;;;;;5.52;100.00;95688.41;5003644;28;24496;-72
2022/11/03 08:27:53;;;;;;;7.25;3.22;;;;;;;5.75;100.00;95690.81;5004542;28;24479;-73
2022/11/03 08:30:19;;;;;;;8.60;3.50;;;;;;;5.94;100.00;95684.88;5002942;28;24974;-72
2022/11/03 08:32:47;;;;;;;8.05;3.58;;;;;;;6.17;100.00;95676.09;5006336;28;24440;-76
2022/11/03 08:35:14;;;;;;;8.73;3.85;;;;;;;6.31;100.00;95671.13;5003168;28;24439;-71
2022/11/03 08:37:40;;;;;;;10.90;4.22;;;;;;;6.26;100.00;95667.94;5007693;28;24472;-71
2022/11/03 08:40:08;;;;;;;9.82;3.90;;;;;;;6.51;100.00;95665.03;5007616;28;25009;-73
2022/11/03 08:42:35;;;;;;;7.63;4.18;;;;;;;6.65;100.00;95665.19;5003256;28;24457;-72
2022/11/03 08:45:01;;;;;;;10.07;4.18;;;;;;;6.63;100.00;95656.69;5005519;28;24994;-73
2022/11/03 08:47:28;;;;;;;6.97;4.00;;;;;;;6.67;100.00;95663.34;5008868;28;24436;-70
2022/11/03 08:49:56;;;;;;;9.37;3.90;;;;;;;6.85;100.00;95665.94;5002076;28;24439;-71
2022/11/03 08:52:23;;;;;;;7.75;4.20;;;;;;;6.95;100.00;95665.41;5000345;28;25009;-71
2022/11/03 08:54:49;;;;;;;9.07;4.60;;;;;;;7.02;100.00;95663.38;5001986;28;24517;-69
2022/11/03 08:57:16;;;;;;;10.25;4.07;;;;;;;7.12;100.00;95658.56;5009512;28;24460;-71
2022/11/03 08:59:42;;;;;;;7.93;4.57;;;;;;;7.33;100.00;95652.31;5004686;28;24444;-70
2022/11/03 09:02:09;;;;;;;8.90;4.82;;;;;;;7.55;100.00;95659.75;5001772;28;24452;-71
2022/11/03 09:04:35;;;;;;;9.93;4.30;;;;;;;7.61;100.00;95649.13;5002039;28;24437;-70
2022/11/03 09:07:03;;;;;;;12.80;5.40;;;;;;;7.75;100.00;95643.25;5005180;28;24439;-70
2022/11/03 09:09:30;;;;;;;6.95;4.55;;;;;;;7.82;100.00;95636.00;5001060;28;25072;-70
2022/11/03 09:11:56;;;;;;;9.50;4.72;;;;;;;7.96;100.00;95644.66;4998274;28;24443;-70
2022/11/03 09:14:23;;;;;;;11.48;5.07;;;;;;;8.02;100.00;95640.09;5002883;28;24436;-71
2022/11/03 09:16:49;;;;;;;9.43;4.30;;;;;;;8.21;100.00;95646.72;5005337;28;24463;-70
2022/11/03 09:19:16;;;;;;;9.15;4.10;;;;;;;8.19;100.00;95645.13;5004149;28;24448;-71
2022/11/03 09:21:42;;;;;;;8.82;4.20;;;;;;;8.33;100.00;95631.47;5000215;28;20774;-71
2022/11/03 09:24:10;;;;;;;7.65;4.70;;;;;;;8.35;100.00;95630.47;5004513;28;20774;-70
2022/11/03 09:26:37;;;;;;;10.75;5.70;;;;;;;8.44;100.00;95634.31;5007352;28;24447;-71
2022/11/03 09:29:04;;;;;;;8.32;5.78;;;;;;;8.43;100.00;95625.75;5004064;28;25051;-69
2022/11/03 09:31:30;;;;;;;9.00;5.53;;;;;;;8.47;100.00;95627.22;5000905;28;25004;-70
2022/11/03 09:33:57;;;;;;;11.18;7.13;;;;;;;8.39;100.00;95616.50;5005199;28;24436;-70
2022/11/03 09:36:23;;;;;;;13.25;8.35;;;;;;;8.36;100.00;95619.22;5008228;28;24795;-70
2022/11/03 09:38:50;;;;;;;15.60;9.98;;;;;;;8.43;100.00;95612.00;5003597;28;25021;-70
2022/11/03 09:41:18;;;;;;;11.27;6.50;;;;;;;8.51;100.00;95601.25;4996061;28;24573;-71
2022/11/03 09:43:45;;;;;;;7.85;5.03;;;;;;;8.54;100.00;95596.75;5008608;28;24455;-71
2022/11/03 09:46:11;;;;;;;7.70;4.88;;;;;;;8.39;100.00;95590.72;5006949;28;24786;-71
2022/11/03 09:48:38;;;;;;;7.25;4.70;;;;;;;8.38;100.00;95593.34;5002067;28;24436;-71
2022/11/03 09:51:06;;;;;;;13.73;5.15;;;;;;;8.38;100.00;95599.38;5002377;28;20783;-70
2022/11/03 09:53:32;;;;;;;7.63;4.72;;;;;;;8.49;100.00;95591.00;5005498;28;20810;-70
2022/11/03 09:55:59;;;;;;;9.88;5.35;;;;;;;8.52;100.00;95592.59;5005264;28;20777;-72
2022/11/03 09:58:27;;;;;;;7.90;4.97;;;;;;;8.47;100.00;95593.69;5004138;28;21355;-72
2022/11/03 10:00:54;;;;;;;11.38;6.57;;;;;;;8.49;100.00;95588.41;5005589;28;21179;-70
2022/11/03 10:03:20;;;;;;;8.90;5.53;;;;;;;8.56;100.00;95594.06;5003277;28;24986;-72
2022/11/03 10:05:47;;;;;;;10.45;5.38;;;;;;;8.59;100.00;95594.72;5002754;28;24512;-72
2022/11/03 10:08:21;;;;;;;9.63;5.43;;;;;;;8.67;100.00;95586.53;4998937;28;21126;-70
2022/11/03 10:10:48;;;;;;;11.07;5.32;;;;;;;8.69;100.00;95584.69;4998322;28;20710;-70
2022/11/03 10:13:23;;;;;;;6.80;4.78;;;;;;;8.79;100.00;95580.66;5003746;28;20801;-70
2022/11/03 10:15:51;;;;;;;8.77;5.40;;;;;;;8.73;100.00;95571.50;5002600;28;20666;-70
2022/11/03 10:18:17;;;;;;;7.57;5.00;;;;;;;8.73;100.00;95565.53;5007923;28;20823;-70
2022/11/03 10:20:44;;;;;;;7.35;4.72;;;;;;;8.76;100.00;95572.28;5004127;28;24433;-71
2022/11/03 10:23:11;;;;;;;6.88;4.97;;;;;;;8.90;100.00;95567.94;5002969;28;24449;-70
2022/11/03 10:25:39;;;;;;;8.88;5.20;;;;;;;8.93;100.00;95557.41;5007724;28;24444;-70
2022/11/03 10:28:17;;;;;;;8.52;4.93;;;;;;;8.96;100.00;95557.22;5005928;28;20812;-70
2022/11/03 10:30:54;;;;;;;7.33;5.03;;;;;;;9.11;100.00;95552.91;4995652;28;20767;-70
2022/11/03 10:33:28;;;;;;;7.80;5.25;;;;;;;9.19;100.00;95542.94;4999153;28;20646;-71
2022/11/03 10:35:56;;;;;;;9.30;5.77;;;;;;;9.23;100.00;95542.75;5007782;28;20755;-71
2022/11/03 10:38:27;;;;;;;8.27;5.45;;;;;;;9.49;100.00;95535.97;4998238;28;20819;-70
2022/11/03 10:40:54;;;;;;;10.43;6.18;;;;;;;9.40;100.00;95543.38;4997822;28;20773;-71
2022/11/03 10:43:21;;;;;;;6.95;5.45;;;;;;;9.50;100.00;95541.06;5003387;28;21184;-71
2022/11/03 10:45:49;;;;;;;11.75;6.07;;;;;;;9.51;100.00;95527.19;5007414;28;24878;-71
2022/11/03 10:48:16;;;;;;;8.20;6.05;;;;;;;9.62;100.00;95531.72;5006879;28;24436;-73
2022/11/03 10:50:43;;;;;;;7.38;5.15;;;;;;;9.62;100.00;95518.78;5000446;28;24807;-72
2022/11/03 10:53:16;;;;;;;8.13;6.13;;;;;;;9.57;100.00;95511.31;5004119;28;24435;-72
2022/11/03 10:55:44;;;;;;;7.07;5.00;;;;;;;9.57;100.00;95506.16;5007116;28;20693;-72
2022/11/03 10:58:11;;;;;;;11.38;6.20;;;;;;;9.49;100.00;95503.19;5003992;28;24424;-72
2022/11/03 11:00:39;;;;;;;10.18;6.90;;;;;;;9.50;100.00;95488.53;5001345;28;24439;-72
2022/11/03 11:03:06;;;;;;;18.27;9.15;;;;;;;9.51;100.00;95490.19;5003485;28;20791;-73
2022/11/03 11:05:34;;;;;;;9.93;6.30;;;;;;;9.69;100.00;95483.84;5000802;28;24444;-72
2022/11/03 11:08:01;;;;;;;12.40;7.88;;;;;;;9.68;100.00;95482.19;5008072;28;24436;-72
2022/11/03 11:10:30;;;;;;;7.50;5.07;;;;;;;9.79;100.00;95479.75;5004611;28;20805;-73
2022/11/03 11:13:23;;;;;;;7.85;4.88;;;;;;;9.85;100.00;95473.34;5009499;28;24543;-73
2022/11/03 11:15:51;;;;;;;16.90;9.43;;;;;;;9.93;100.00;95471.09;5004307;28;20819;-73
2022/11/03 11:18:51;;;;;;;10.50;6.30;;;;;;;10.10;100.00;95477.75;4999912;28;24517;-72
2022/11/03 11:22:00;;;;;;;12.75;7.72;;;;;;;10.08;100.00;95464.91;5010083;28;24444;-72
2022/11/03 11:25:02;;;;;;;10.02;6.03;;;;;;;10.11;100.00;95458.72;5011747;28;20720;-71
2022/11/03 11:27:54;;;;;;;7.40;4.72;;;;;;;10.15;100.00;95454.97;5008357;28;24441;-72
2022/11/03 11:31:03;;;;;;;8.23;4.57;;;;;;;10.18;100.00;95458.19;5007550;28;24448;-72
2022/11/03 11:33:34;;;;;;;5.60;4.03;;;;;;;10.15;100.00;95449.81;5009028;28;24440;-71
2022/11/03 11:36:19;;;;;;;6.32;4.80;;;;;;;10.19;100.00;95446.09;5008044;28;24470;-71
2022/11/03 11:39:08;;;;;;;5.70;4.63;;;;;;;10.19;100.00;95435.72;5004996;28;24499;-71
2022/11/03 11:42:10;;;;;;;6.00;4.25;;;;;;;10.19;100.00;95422.78;5010703;28;24817;-71
2022/11/03 11:44:50;;;;;;;5.97;4.30;;;;;;;10.22;100.00;95416.59;5007866;28;24594;-71
2022/11/03 11:47:42;;;;;;;6.50;4.38;;;;;;;10.24;100.00;95412.97;5002753;28;24443;-71
2022/11/03 11:50:31;;;;;;;5.75;4.45;;;;;;;10.29;100.00;95412.69;5000836;28;24447;-71
2022/11/03 11:53:18;;;;;;;7.93;4.55;;;;;;;10.31;100.00;95413.44;5005103;28;25051;-70
2022/11/03 11:55:50;;;;;;;6.10;4.50;;;;;;;10.33;100.00;95408.97;4999777;28;24437;-72
2022/11/03 11:58:22;;;;;;;7.72;4.65;;;;;;;10.42;100.00;95410.94;5003464;28;24444;-71
2022/11/03 12:00:58;;;;;;;5.53;4.13;;;;;;;10.43;100.00;95398.81;5008688;28;24440;-71
2022/11/03 12:03:36;;;;;;;9.38;4.32;;;;;;;10.49;100.00;95403.56;5009573;28;24459;-71
2022/11/03 12:06:03;;;;;;;5.13;3.75;;;;;;;10.48;100.00;95401.91;5003945;28;24437;-72